createdAt,value
2022-09-26T00:01:04.938Z,11.00
2022-09-26T00:03:32.182Z,11.00
2022-09-26T00:06:05.840Z,11.00
2022-09-26T00:08:33.101Z,11.00
2022-09-26T00:11:01.225Z,11.00
2022-09-26T00:13:28.462Z,11.00
2022-09-26T00:15:55.787Z,11.00
2022-09-26T00:18:22.813Z,11.00
2022-09-26T00:20:49.873Z,11.00
2022-09-26T00:23:16.981Z,11.00
2022-09-26T00:25:47.490Z,11.00
2022-09-26T00:28:14.825Z,11.00
2022-09-26T00:30:41.934Z,11.00
2022-09-26T00:33:08.978Z,11.00
2022-09-26T00:35:36.120Z,11.00
2022-09-26T00:38:03.638Z,11.00
2022-09-26T00:40:31.069Z,11.00
2022-09-26T00:42:58.747Z,10.90
2022-09-26T00:45:26.823Z,11.00
2022-09-26T00:47:59.323Z,10.90
2022-09-26T00:50:33.083Z,10.90
2022-09-26T00:53:04.794Z,10.90
2022-09-26T00:55:35.018Z,11.00
2022-09-26T00:58:07.709Z,10.90
2022-09-26T01:00:35.213Z,10.90
2022-09-26T01:03:02.807Z,10.90
2022-09-26T01:05:29.810Z,10.90
2022-09-26T01:07:57.189Z,10.90
2022-09-26T01:10:26.863Z,10.90
2022-09-26T01:12:54.075Z,10.90
2022-09-26T01:15:21.103Z,10.80
2022-09-26T01:17:48.772Z,10.90
2022-09-26T01:20:22.027Z,10.90
2022-09-26T01:22:49.019Z,10.90
2022-09-26T01:25:16.073Z,10.90
2022-09-26T01:27:46.198Z,10.90
2022-09-26T01:30:21.416Z,10.80
2022-09-26T01:32:51.593Z,10.80
2022-09-26T01:35:27.730Z,10.80
2022-09-26T01:38:12.455Z,10.80
2022-09-26T01:40:39.616Z,10.80
2022-09-26T01:43:36.063Z,10.80
2022-09-26T01:46:03.127Z,10.80
2022-09-26T01:48:34.887Z,10.80
2022-09-26T01:51:09.048Z,10.80
2022-09-26T01:53:39.722Z,10.80
2022-09-26T01:56:07.900Z,10.90
2022-09-26T01:58:36.030Z,10.80
2022-09-26T02:01:04.361Z,10.80
2022-09-26T02:03:31.901Z,10.90
2022-09-26T02:05:59.583Z,10.90
2022-09-26T02:08:28.646Z,10.90
2022-09-26T02:11:03.825Z,10.90
2022-09-26T02:13:48.306Z,10.90
2022-09-26T02:16:17.725Z,10.90
2022-09-26T02:18:49.578Z,10.90
2022-09-26T02:21:18.111Z,10.80
2022-09-26T02:23:45.194Z,10.90
2022-09-26T02:26:12.213Z,10.80
2022-09-26T02:28:39.226Z,10.90
2022-09-26T02:31:08.863Z,10.80
2022-09-26T02:33:35.996Z,10.80
2022-09-26T02:36:03.539Z,10.80
2022-09-26T02:38:32.172Z,10.80
2022-09-26T02:41:15.711Z,10.80
2022-09-26T02:43:48.887Z,10.80
2022-09-26T02:46:16.442Z,10.80
2022-09-26T02:48:43.619Z,10.80
2022-09-26T02:51:10.741Z,10.80
2022-09-26T02:53:46.859Z,10.80
2022-09-26T02:56:17.344Z,10.80
2022-09-26T02:58:44.496Z,10.70
2022-09-26T03:01:11.653Z,10.70
2022-09-26T03:03:38.721Z,10.70
2022-09-26T03:06:06.358Z,10.70
2022-09-26T03:08:35.712Z,10.60
2022-09-26T03:11:05.106Z,10.60
2022-09-26T03:13:35.862Z,10.60
2022-09-26T03:16:03.240Z,10.60
2022-09-26T03:18:40.298Z,10.60
2022-09-26T03:21:07.522Z,10.60
2022-09-26T03:23:34.559Z,10.60
2022-09-26T03:26:10.156Z,10.60
2022-09-26T03:28:42.861Z,10.60
2022-09-26T03:31:11.256Z,10.60
2022-09-26T03:33:48.822Z,10.60
2022-09-26T03:36:15.988Z,10.60
2022-09-26T03:38:43.070Z,10.60
2022-09-26T03:41:25.044Z,10.70
2022-09-26T03:43:56.237Z,10.70
2022-09-26T03:46:25.108Z,10.60
2022-09-26T03:48:52.514Z,10.70
2022-09-26T03:51:20.998Z,10.60
2022-09-26T03:53:48.057Z,10.70
2022-09-26T03:56:18.100Z,10.70
2022-09-26T03:58:45.304Z,10.70
2022-09-26T04:01:19.350Z,10.70
2022-09-26T04:03:50.526Z,10.70
2022-09-26T04:06:20.057Z,10.80
2022-09-26T04:08:49.868Z,10.80
2022-09-26T04:11:19.143Z,10.70
2022-09-26T04:13:52.997Z,10.80
2022-09-26T04:16:23.852Z,10.80
2022-09-26T04:18:57.300Z,10.70
2022-09-26T04:21:26.893Z,10.70
2022-09-26T04:23:54.085Z,10.70
2022-09-26T04:26:23.675Z,10.70
2022-09-26T04:28:55.209Z,10.60
2022-09-26T04:31:24.842Z,10.60
2022-09-26T04:33:58.262Z,10.70
2022-09-26T04:36:25.275Z,10.60
2022-09-26T04:38:52.338Z,10.60
2022-09-26T04:41:20.972Z,10.60
2022-09-26T04:43:49.247Z,10.60
2022-09-26T04:46:22.829Z,10.50
2022-09-26T04:48:52.195Z,10.50
2022-09-26T04:51:21.508Z,10.50
2022-09-26T04:53:50.519Z,10.50
2022-09-26T04:56:21.534Z,10.50
2022-09-26T04:58:48.788Z,10.50
2022-09-26T05:01:19.572Z,10.50
2022-09-26T05:04:05.194Z,10.50
2022-09-26T05:06:33.589Z,10.50
2022-09-26T05:09:02.446Z,10.50
2022-09-26T05:11:44.385Z,10.50
2022-09-26T05:14:13.260Z,10.40
2022-09-26T05:16:40.560Z,10.40
2022-09-26T05:19:11.942Z,10.40
2022-09-26T05:21:46.746Z,10.30
2022-09-26T05:24:32.535Z,10.40
2022-09-26T05:26:59.603Z,10.30
2022-09-26T05:29:26.625Z,10.40
2022-09-26T05:32:01.363Z,10.30
2022-09-26T05:34:32.459Z,10.40
2022-09-26T05:37:01.840Z,10.40
2022-09-26T05:39:47.721Z,10.40
2022-09-26T05:42:15.374Z,10.30
2022-09-26T05:44:43.243Z,10.40
2022-09-26T05:47:11.252Z,10.30
2022-09-26T05:49:38.502Z,10.30
2022-09-26T05:52:09.097Z,10.30
2022-09-26T05:54:36.116Z,10.30
2022-09-26T05:57:12.854Z,10.30
2022-09-26T05:59:45.854Z,10.40
2022-09-26T06:02:24.858Z,10.30
2022-09-26T06:05:15.089Z,10.40
2022-09-26T06:08:05.247Z,10.40
2022-09-26T06:10:35.727Z,10.30
2022-09-26T06:13:02.860Z,10.40
2022-09-26T06:15:32.727Z,10.40
2022-09-26T06:18:06.748Z,10.40
2022-09-26T06:20:33.851Z,10.50
2022-09-26T06:23:01.688Z,10.50
2022-09-26T06:25:29.298Z,10.50
2022-09-26T06:28:00.249Z,10.50
2022-09-26T06:30:28.147Z,10.60
2022-09-26T06:33:02.346Z,10.60
2022-09-26T06:35:38.118Z,10.60
2022-09-26T06:38:17.811Z,10.60
2022-09-26T06:40:45.393Z,10.70
2022-09-26T06:43:12.885Z,10.70
2022-09-26T06:46:09.514Z,10.70
2022-09-26T06:48:46.570Z,10.70
2022-09-26T06:51:21.813Z,10.80
2022-09-26T06:53:49.083Z,10.80
2022-09-26T06:56:20.276Z,10.80
2022-09-26T06:58:49.774Z,10.70
2022-09-26T07:01:18.628Z,10.70
2022-09-26T07:04:08.359Z,10.80
2022-09-26T07:06:38.704Z,10.80
2022-09-26T07:09:11.373Z,10.80
2022-09-26T07:12:17.458Z,10.80
2022-09-26T07:14:44.528Z,10.90
2022-09-26T07:17:25.694Z,10.90
2022-09-26T07:20:04.859Z,10.90
2022-09-26T07:22:50.179Z,10.90
2022-09-26T07:25:17.394Z,10.90
2022-09-26T07:27:45.269Z,10.80
2022-09-26T07:30:13.014Z,11.00
2022-09-26T07:32:49.678Z,11.00
2022-09-26T07:35:35.451Z,11.00
2022-09-26T07:38:03.427Z,11.00
2022-09-26T07:40:30.901Z,11.10
2022-09-26T07:43:20.184Z,11.00
2022-09-26T07:46:09.722Z,11.10
2022-09-26T07:48:56.675Z,11.10
2022-09-26T07:51:46.595Z,11.10
2022-09-26T07:54:18.146Z,11.10
2022-09-26T07:57:11.695Z,11.20
2022-09-26T07:59:52.412Z,11.30
2022-09-26T08:02:28.844Z,11.30
2022-09-26T08:05:00.764Z,11.30
2022-09-26T08:07:29.961Z,11.20
2022-09-26T08:10:05.485Z,11.30
2022-09-26T08:13:04.598Z,11.30
2022-09-26T08:16:04.355Z,11.40
2022-09-26T08:18:32.547Z,11.60
2022-09-26T08:20:59.668Z,11.60
2022-09-26T08:23:26.952Z,11.50
2022-09-26T08:26:23.843Z,11.50
2022-09-26T08:28:56.383Z,11.60
2022-09-26T08:31:23.507Z,11.60
2022-09-26T08:33:50.608Z,11.60
2022-09-26T08:36:17.722Z,11.70
2022-09-26T08:39:03.817Z,11.70
2022-09-26T08:41:49.872Z,11.80
2022-09-26T08:44:57.820Z,11.80
2022-09-26T08:48:00.750Z,11.90
2022-09-26T08:50:38.437Z,11.90
2022-09-26T08:53:10.376Z,11.90
2022-09-26T08:55:44.412Z,12.00
2022-09-26T08:58:12.464Z,12.10
2022-09-26T09:00:39.541Z,12.20
2022-09-26T09:03:10.048Z,12.30
2022-09-26T09:05:39.410Z,12.40
2022-09-26T09:08:10.491Z,12.40
2022-09-26T09:11:04.202Z,12.40
2022-09-26T09:13:34.959Z,12.40
2022-09-26T09:16:39.847Z,12.40
2022-09-26T09:19:34.477Z,12.40
2022-09-26T09:22:46.371Z,12.50
2022-09-26T09:25:52.163Z,12.70
2022-09-26T09:28:25.871Z,12.80
2022-09-26T09:30:59.307Z,13.10
2022-09-26T09:33:46.139Z,13.10
2022-09-26T09:36:32.492Z,13.10
2022-09-26T09:39:15.183Z,13.10
2022-09-26T09:41:51.414Z,13.00
2022-09-26T09:44:24.453Z,13.00
2022-09-26T09:46:51.724Z,13.00
2022-09-26T09:49:22.839Z,13.10
2022-09-26T09:52:02.071Z,13.10
2022-09-26T09:54:32.298Z,13.20
2022-09-26T09:57:17.781Z,13.10
2022-09-26T10:00:01.990Z,13.20
2022-09-26T10:02:44.083Z,13.30
2022-09-26T10:05:35.018Z,13.40
2022-09-26T10:08:03.054Z,13.30
2022-09-26T10:10:57.730Z,13.20
2022-09-26T10:13:53.598Z,13.30
2022-09-26T10:17:05.628Z,13.40
2022-09-26T10:19:33.422Z,13.60
2022-09-26T10:22:00.896Z,13.50
2022-09-26T10:24:34.111Z,13.40
2022-09-26T10:27:22.063Z,13.30
2022-09-26T10:29:58.950Z,13.20
2022-09-26T10:32:26.837Z,12.90
2022-09-26T10:35:24.207Z,12.60
2022-09-26T10:38:01.612Z,12.30
2022-09-26T10:40:48.417Z,12.20
2022-09-26T10:43:37.868Z,12.10
2022-09-26T10:46:18.804Z,12.20
2022-09-26T10:49:05.576Z,12.20
2022-09-26T10:51:42.837Z,12.20
2022-09-26T10:54:22.106Z,12.20
2022-09-26T10:56:54.183Z,12.30
2022-09-26T10:59:24.391Z,12.40
2022-09-26T11:01:51.841Z,12.60
2022-09-26T11:04:40.220Z,12.70
2022-09-26T11:07:35.860Z,12.70
2022-09-26T11:10:27.778Z,12.80
2022-09-26T11:13:05.038Z,13.00
2022-09-26T11:15:32.189Z,13.00
2022-09-26T11:18:00.090Z,13.00
2022-09-26T11:20:40.742Z,13.00
2022-09-26T11:23:14.136Z,13.00
2022-09-26T11:25:47.674Z,13.10
2022-09-26T11:28:16.512Z,13.20
2022-09-26T11:31:27.537Z,13.30
2022-09-26T11:34:27.791Z,13.60
2022-09-26T11:37:03.787Z,13.60
2022-09-26T11:39:46.405Z,13.70
2022-09-26T11:42:26.615Z,13.60
2022-09-26T11:44:58.461Z,13.70
2022-09-26T11:47:38.355Z,13.70
2022-09-26T11:50:23.218Z,13.60
2022-09-26T11:53:15.841Z,13.60
2022-09-26T11:56:02.191Z,13.60
2022-09-26T11:58:43.350Z,13.60
2022-09-26T12:01:27.291Z,13.60
2022-09-26T12:03:56.010Z,13.80
2022-09-26T12:06:34.928Z,13.80
2022-09-26T12:09:24.267Z,13.90
2022-09-26T12:12:00.546Z,14.00
2022-09-26T12:14:27.532Z,14.20
2022-09-26T12:16:56.206Z,14.50
2022-09-26T12:19:33.187Z,14.30
2022-09-26T12:22:29.767Z,14.50
2022-09-26T12:25:07.289Z,14.40
2022-09-26T12:27:40.123Z,14.50
2022-09-26T12:30:17.319Z,14.60
2022-09-26T12:33:04.247Z,14.70
2022-09-26T12:36:04.227Z,14.80
2022-09-26T12:38:32.779Z,15.00
2022-09-26T12:41:02.298Z,14.90
2022-09-26T12:43:33.202Z,15.00
2022-09-26T12:46:00.254Z,15.10
2022-09-26T12:48:39.503Z,15.10
2022-09-26T12:51:16.119Z,15.10
2022-09-26T12:53:49.147Z,15.00
2022-09-26T12:56:22.256Z,14.80
2022-09-26T12:59:04.472Z,14.80
2022-09-26T13:01:44.561Z,14.90
2022-09-26T13:04:17.722Z,15.10
2022-09-26T13:07:19.011Z,15.10
2022-09-26T13:10:05.641Z,15.30
2022-09-26T13:12:40.430Z,15.30
2022-09-26T13:15:07.507Z,15.40
2022-09-26T13:17:35.845Z,15.60
2022-09-26T13:20:18.773Z,15.80
2022-09-26T13:22:52.193Z,15.80
2022-09-26T13:25:23.538Z,15.70
2022-09-26T13:28:17.544Z,15.40
2022-09-26T13:30:46.509Z,15.30
2022-09-26T13:33:18.285Z,15.40
2022-09-26T13:35:47.170Z,15.40
2022-09-26T13:38:17.211Z,15.40
2022-09-26T13:40:47.767Z,15.50
2022-09-26T13:43:24.206Z,15.40
2022-09-26T13:46:00.475Z,15.50
2022-09-26T13:48:37.066Z,15.50
2022-09-26T13:51:23.034Z,15.50
2022-09-26T13:54:10.458Z,15.40
2022-09-26T13:56:41.194Z,15.30
2022-09-26T13:59:09.603Z,15.20
2022-09-26T14:01:36.809Z,15.20
2022-09-26T14:04:17.616Z,15.30
2022-09-26T14:07:02.242Z,15.20
2022-09-26T14:09:42.067Z,15.30
2022-09-26T14:12:42.424Z,15.30
2022-09-26T14:15:16.837Z,15.10
2022-09-26T14:17:43.868Z,15.00
2022-09-26T14:20:19.974Z,14.90
2022-09-26T14:22:50.677Z,15.10
2022-09-26T14:25:44.130Z,15.10
2022-09-26T14:28:21.103Z,15.20
2022-09-26T14:31:06.868Z,15.10
2022-09-26T14:33:34.116Z,15.20
2022-09-26T14:36:19.603Z,15.20
2022-09-26T14:38:47.492Z,15.20
2022-09-26T14:41:18.226Z,15.20
2022-09-26T14:43:45.327Z,15.20
2022-09-26T14:46:19.887Z,15.30
2022-09-26T14:48:47.010Z,15.30
2022-09-26T14:51:21.817Z,15.30
2022-09-26T14:53:48.842Z,15.40
2022-09-26T14:56:16.595Z,15.50
2022-09-26T14:58:47.759Z,15.40
2022-09-26T15:01:18.802Z,15.40
2022-09-26T15:03:50.534Z,15.30
2022-09-26T15:06:17.558Z,15.40
2022-09-26T15:08:44.595Z,15.50
2022-09-26T15:11:17.831Z,15.50
2022-09-26T15:13:45.199Z,15.60
2022-09-26T15:16:23.803Z,15.60
2022-09-26T15:18:52.662Z,15.60
2022-09-26T15:21:23.262Z,15.60
2022-09-26T15:23:51.091Z,15.70
2022-09-26T15:26:19.769Z,15.70
2022-09-26T15:28:47.312Z,15.80
2022-09-26T15:31:20.260Z,15.80
2022-09-26T15:33:48.981Z,15.90
2022-09-26T15:36:17.170Z,16.20
2022-09-26T15:38:47.235Z,16.20
2022-09-26T15:41:16.054Z,16.20
2022-09-26T15:43:43.115Z,16.00
2022-09-26T15:46:20.181Z,15.80
2022-09-26T15:48:47.253Z,15.50
2022-09-26T15:51:19.623Z,15.20
2022-09-26T15:54:10.041Z,15.00
2022-09-26T15:56:37.194Z,15.00
2022-09-26T15:59:19.171Z,14.90
2022-09-26T16:01:48.722Z,15.10
2022-09-26T16:04:20.501Z,15.10
2022-09-26T16:07:00.461Z,15.20
2022-09-26T16:09:37.522Z,15.30
2022-09-26T16:12:12.960Z,15.30
2022-09-26T16:14:46.669Z,15.30
2022-09-26T16:17:13.700Z,15.10
2022-09-26T16:19:44.894Z,15.10
2022-09-26T16:22:22.514Z,15.10
2022-09-26T16:24:50.351Z,15.00
2022-09-26T16:27:24.469Z,14.90
2022-09-26T16:29:52.371Z,14.70
2022-09-26T16:32:20.902Z,14.50
2022-09-26T16:34:48.823Z,14.30
2022-09-26T16:37:19.666Z,14.30
2022-09-26T16:39:56.551Z,14.20
2022-09-26T16:42:25.486Z,14.20
2022-09-26T16:44:54.251Z,14.10
2022-09-26T16:47:39.947Z,14.00
2022-09-26T16:50:16.907Z,13.90
2022-09-26T16:52:45.832Z,13.80
2022-09-26T16:55:13.092Z,13.70
2022-09-26T16:57:46.083Z,13.70
2022-09-26T17:00:35.343Z,13.70
2022-09-26T17:03:02.628Z,13.60
2022-09-26T17:05:29.787Z,13.40
2022-09-26T17:07:56.831Z,13.30
2022-09-26T17:10:24.495Z,13.20
2022-09-26T17:12:52.891Z,13.10
2022-09-26T17:15:22.283Z,13.00
2022-09-26T17:17:53.991Z,12.90
2022-09-26T17:20:22.066Z,12.90
2022-09-26T17:22:49.450Z,12.80
2022-09-26T17:25:16.473Z,12.80
2022-09-26T17:27:43.549Z,12.80
2022-09-26T17:30:14.193Z,12.70
2022-09-26T17:32:44.554Z,12.60
2022-09-26T17:35:17.046Z,12.50
2022-09-26T17:37:44.088Z,12.50
2022-09-26T17:40:16.903Z,12.50
2022-09-26T17:42:43.984Z,12.50
2022-09-26T17:45:11.058Z,12.40
2022-09-26T17:47:38.106Z,12.40
2022-09-26T17:50:05.368Z,12.40
2022-09-26T17:52:32.481Z,12.30
2022-09-26T17:55:02.177Z,12.20
2022-09-26T17:57:33.544Z,12.10
2022-09-26T18:00:05.606Z,12.00
2022-09-26T18:02:34.481Z,12.00
2022-09-26T18:05:03.263Z,11.90
2022-09-26T18:07:34.046Z,11.90
2022-09-26T18:10:02.962Z,11.90
2022-09-26T18:12:29.994Z,11.90
2022-09-26T18:14:57.008Z,11.90
2022-09-26T18:17:24.039Z,12.00
2022-09-26T18:19:51.251Z,12.00
2022-09-26T18:22:18.832Z,12.00
2022-09-26T18:24:46.072Z,12.00
2022-09-26T18:27:13.975Z,12.10
2022-09-26T18:29:41.700Z,12.20
2022-09-26T18:32:12.987Z,12.20
2022-09-26T18:34:40.023Z,12.10
2022-09-26T18:37:08.235Z,12.10
2022-09-26T18:39:35.720Z,12.20
2022-09-26T18:42:05.975Z,12.10
2022-09-26T18:44:34.995Z,12.00
2022-09-26T18:47:03.604Z,12.10
2022-09-26T18:49:30.910Z,12.00
2022-09-26T18:51:57.990Z,12.00
2022-09-26T18:54:25.581Z,12.00
2022-09-26T18:57:11.458Z,12.10
2022-09-26T18:59:38.479Z,12.10
2022-09-26T19:02:08.953Z,12.10
2022-09-26T19:04:36.035Z,12.20
2022-09-26T19:07:04.869Z,12.20
2022-09-26T19:09:33.074Z,12.30
2022-09-26T19:12:00.726Z,12.30
2022-09-26T19:14:28.442Z,12.30
2022-09-26T19:16:55.497Z,12.30
2022-09-26T19:19:22.777Z,12.30
2022-09-26T19:21:50.410Z,12.30
2022-09-26T19:24:20.890Z,12.30
2022-09-26T19:27:08.283Z,12.20
2022-09-26T19:29:36.806Z,12.20
2022-09-26T19:32:04.413Z,12.20
2022-09-26T19:34:32.926Z,12.30
2022-09-26T19:37:02.239Z,12.20
2022-09-26T19:39:29.325Z,12.30
2022-09-26T19:41:56.335Z,12.30
2022-09-26T19:44:24.321Z,12.30
2022-09-26T19:46:51.394Z,12.40
2022-09-26T19:49:18.766Z,12.30
2022-09-26T19:51:45.820Z,12.30
2022-09-26T19:54:17.475Z,12.30
2022-09-26T19:56:45.583Z,12.20
2022-09-26T19:59:17.174Z,12.20
2022-09-26T20:01:46.278Z,12.20
2022-09-26T20:04:14.215Z,12.20
2022-09-26T20:06:41.362Z,12.20
2022-09-26T20:09:15.614Z,12.10
2022-09-26T20:11:42.683Z,12.10
2022-09-26T20:14:25.054Z,12.00
2022-09-26T20:16:52.953Z,12.00
2022-09-26T20:19:21.853Z,12.00
2022-09-26T20:21:48.946Z,12.00
2022-09-26T20:24:18.413Z,12.00
2022-09-26T20:26:45.993Z,12.00
2022-09-26T20:29:13.953Z,12.00
2022-09-26T20:31:43.917Z,11.90
2022-09-26T20:34:11.451Z,11.90
2022-09-26T20:36:40.783Z,11.90
2022-09-26T20:39:11.595Z,11.90
2022-09-26T20:41:38.979Z,11.90
2022-09-26T20:44:10.895Z,11.80
2022-09-26T20:46:38.460Z,11.80
2022-09-26T20:49:06.857Z,11.90
2022-09-26T20:51:34.975Z,11.80
2022-09-26T20:54:02.445Z,11.80
2022-09-26T20:56:29.834Z,11.80
2022-09-26T20:58:56.920Z,11.80
2022-09-26T21:01:26.433Z,11.80
2022-09-26T21:03:55.053Z,11.80
2022-09-26T21:06:22.899Z,11.80
2022-09-26T21:08:50.002Z,11.70
2022-09-26T21:11:17.608Z,11.70
2022-09-26T21:13:44.762Z,11.60
2022-09-26T21:16:15.452Z,11.50
2022-09-26T21:18:46.632Z,11.60
2022-09-26T21:21:16.925Z,11.60
2022-09-26T21:23:54.973Z,11.50
2022-09-26T21:26:23.803Z,11.50
2022-09-26T21:28:51.255Z,11.50
2022-09-26T21:31:19.891Z,11.50
2022-09-26T21:33:47.095Z,11.50
2022-09-26T21:36:14.172Z,11.50
2022-09-26T21:38:41.238Z,11.50
2022-09-26T21:41:09.561Z,11.60
2022-09-26T21:43:37.247Z,11.50
2022-09-26T21:46:04.361Z,11.50
2022-09-26T21:48:32.007Z,11.50
2022-09-26T21:51:00.130Z,11.40
2022-09-26T21:53:36.155Z,11.50
2022-09-26T21:56:07.300Z,11.50
2022-09-26T21:58:36.051Z,11.50
2022-09-26T22:01:03.205Z,11.50
2022-09-26T22:03:30.290Z,11.50
2022-09-26T22:05:57.400Z,11.40
2022-09-26T22:08:24.440Z,11.40
2022-09-26T22:10:52.258Z,11.40
2022-09-26T22:13:19.317Z,11.40
2022-09-26T22:15:46.418Z,11.30
2022-09-26T22:18:13.481Z,11.30
2022-09-26T22:20:40.546Z,11.40
2022-09-26T22:23:07.579Z,11.30
2022-09-26T22:25:34.665Z,11.30
2022-09-26T22:28:02.023Z,11.30
2022-09-26T22:30:29.070Z,11.30
2022-09-26T22:32:56.130Z,11.10
2022-09-26T22:35:23.178Z,11.10
2022-09-26T22:37:50.527Z,11.10
2022-09-26T22:40:17.619Z,11.10
2022-09-26T22:42:44.762Z,11.10
2022-09-26T22:45:11.789Z,11.00
2022-09-26T22:47:38.818Z,11.10
2022-09-26T22:50:05.975Z,11.10
2022-09-26T22:52:32.998Z,11.20
2022-09-26T22:55:00.231Z,11.20
2022-09-26T22:57:27.250Z,11.30
2022-09-26T22:59:54.277Z,11.30
2022-09-26T23:02:21.369Z,11.30
2022-09-26T23:04:48.526Z,11.30
2022-09-26T23:07:18.863Z,11.30
2022-09-26T23:09:45.988Z,11.30
2022-09-26T23:12:13.066Z,11.20
2022-09-26T23:14:40.227Z,11.20
2022-09-26T23:17:07.315Z,11.30
2022-09-26T23:19:34.422Z,11.30
2022-09-26T23:22:01.572Z,11.30
2022-09-26T23:24:28.623Z,11.30
2022-09-26T23:26:58.970Z,11.30
2022-09-26T23:29:26.067Z,11.30
2022-09-26T23:31:53.184Z,11.20
2022-09-26T23:34:20.345Z,11.20
2022-09-26T23:36:47.406Z,11.20
2022-09-26T23:39:14.639Z,11.10
2022-09-26T23:41:41.726Z,11.00
2022-09-26T23:44:08.759Z,10.90
2022-09-26T23:46:36.415Z,10.90
2022-09-26T23:49:03.513Z,11.00
2022-09-26T23:51:30.537Z,10.90
2022-09-26T23:53:57.590Z,10.90
2022-09-26T23:56:24.628Z,11.00
2022-09-26T23:58:51.680Z,11.10
